Time;durP1;ratioP1;P1;durP2;ratioP2;P2;SDS_P1;SDS_P2;PMS_P1;PMS_P2;Temp;Humidity;BMP_temperature;BMP_pressure;BME280_temperature;BME280_humidity;BME280_pressure;Samples;Min_cycle;Max_cycle;Signal;HPM_P1;HPM_P2
2021/10/03 00:01:41;;;;;;;1999.90;999.90;;;;;;;12.66;46.29;100136.56;5023326;27;99411;-73
2021/10/03 00:04:09;;;;;;;1999.90;999.90;;;;;;;12.66;46.32;100134.78;5023662;28;96940;-74
2021/10/03 00:06:37;;;;;;;1999.90;999.90;;;;;;;12.66;46.22;100133.91;5025109;28;97204;-73
2021/10/03 00:09:05;;;;;;;1999.90;999.90;;;;;;;12.65;46.38;100138.38;5022002;27;99752;-73
2021/10/03 00:11:33;;;;;;;1999.90;999.90;;;;;;;12.66;46.33;100131.22;5022891;27;99762;-73
2021/10/03 00:14:02;;;;;;;1999.90;999.90;;;;;;;12.66;46.35;100139.22;5023374;27;96923;-73
2021/10/03 00:16:30;;;;;;;1999.90;999.90;;;;;;;12.65;46.42;100142.81;5024534;27;97051;-73
2021/10/03 00:18:57;;;;;;;1999.90;999.90;;;;;;;12.66;46.35;100141.91;5021344;27;100700;-75
2021/10/03 00:21:38;;;;;;;1999.90;999.90;;;;;;;12.60;46.54;100133.91;5023563;27;98877;-74
2021/10/03 00:24:06;;;;;;;1999.90;999.90;;;;;;;12.57;46.45;100150.78;5023724;28;97626;-73
2021/10/03 00:26:34;;;;;;;1999.90;999.90;;;;;;;12.57;46.41;100140.13;5020799;27;97426;-73
2021/10/03 00:29:04;;;;;;;1999.90;999.90;;;;;;;12.55;46.49;100140.97;5023207;28;97724;-72
2021/10/03 00:31:32;;;;;;;1999.90;999.90;;;;;;;12.54;46.52;100134.78;5022364;27;97923;-73
2021/10/03 00:34:00;;;;;;;1999.90;999.90;;;;;;;12.54;46.66;100141.88;5023715;27;97387;-74
2021/10/03 00:36:27;;;;;;;1999.90;999.90;;;;;;;12.55;46.55;100128.53;5023123;27;97100;-73
2021/10/03 00:38:55;;;;;;;1999.90;999.90;;;;;;;12.56;46.41;100126.78;5021871;27;101276;-74
2021/10/03 00:41:23;;;;;;;1999.90;999.90;;;;;;;12.55;46.62;100132.97;5022634;27;99432;-76
2021/10/03 00:43:51;;;;;;;1999.90;999.90;;;;;;;12.54;46.60;100129.44;5021980;28;97452;-73
2021/10/03 00:46:20;;;;;;;1999.90;999.90;;;;;;;12.54;46.52;100117.88;5023621;27;96884;-74
2021/10/03 00:48:48;;;;;;;1999.90;999.90;;;;;;;12.53;46.50;100132.97;5024281;27;97038;-73
2021/10/03 00:51:16;;;;;;;1999.90;999.90;;;;;;;12.52;46.66;100131.22;5022088;27;99867;-73
2021/10/03 00:53:44;;;;;;;1999.90;999.90;;;;;;;12.54;46.59;100141.88;5021839;27;96966;-74
2021/10/03 00:56:15;;;;;;;1999.90;999.90;;;;;;;12.56;46.49;100132.09;5021488;27;97931;-73
2021/10/03 00:58:44;;;;;;;1999.90;999.90;;;;;;;12.57;46.43;100133.88;5021962;27;98089;-73
2021/10/03 01:01:12;;;;;;;1999.90;999.90;;;;;;;12.57;46.47;100139.22;5023786;27;98839;-73
2021/10/03 01:03:42;;;;;;;1999.90;999.90;;;;;;;12.55;46.51;100128.53;5021631;27;97266;-73
2021/10/03 01:06:10;;;;;;;1999.90;999.90;;;;;;;12.56;46.56;100119.66;5024379;28;97307;-74
2021/10/03 01:08:38;;;;;;;1999.90;999.90;;;;;;;12.57;46.42;100117.84;5024278;27;98710;-73
2021/10/03 01:11:06;;;;;;;1999.90;999.90;;;;;;;12.56;46.58;100125.00;5019693;27;100221;-73
2021/10/03 01:13:34;;;;;;;1999.90;999.90;;;;;;;12.56;46.54;100114.31;5022693;27;97173;-73
2021/10/03 01:16:01;;;;;;;1999.90;999.90;;;;;;;12.57;46.63;100109.84;5023611;27;98208;-73
2021/10/03 01:18:29;;;;;;;1999.90;999.90;;;;;;;12.57;46.61;100107.19;5022271;28;101400;-73
2021/10/03 01:21:03;;;;;;;1999.90;999.90;;;;;;;12.58;46.65;100109.00;5021022;27;98695;-72
2021/10/03 01:23:31;;;;;;;1999.90;999.90;;;;;;;12.57;46.58;100096.50;5020955;27;96932;-73
2021/10/03 01:25:59;;;;;;;1999.90;999.90;;;;;;;12.57;46.56;100099.19;5023504;28;96853;-73
2021/10/03 01:28:27;;;;;;;1999.90;999.90;;;;;;;12.55;46.78;100095.63;5020549;27;97935;-73
2021/10/03 01:30:55;;;;;;;1999.90;999.90;;;;;;;12.53;46.68;100089.41;5004405;28;99669;-73
2021/10/03 01:33:24;;;;;;;1999.90;999.90;;;;;;;12.53;46.67;100079.59;5022467;27;96956;-74
2021/10/03 01:35:52;;;;;;;1999.90;999.90;;;;;;;12.51;46.75;100078.72;5024166;27;96990;-73
2021/10/03 01:38:21;;;;;;;1999.90;999.90;;;;;;;12.51;46.68;100081.38;5020311;27;98117;-73
2021/10/03 01:40:50;;;;;;;1999.90;999.90;;;;;;;12.52;46.69;100076.94;5021200;27;99591;-73
2021/10/03 01:43:19;;;;;;;1999.90;999.90;;;;;;;12.55;46.66;100071.59;5004495;27;96909;-73
2021/10/03 01:45:47;;;;;;;1999.90;999.90;;;;;;;12.54;46.63;100072.50;5019855;27;96896;-73
2021/10/03 01:48:36;;;;;;;1999.90;999.90;;;;;;;12.53;46.67;100068.94;5020320;27;102570;-74
2021/10/03 01:51:06;;;;;;;1999.90;999.90;;;;;;;12.52;46.72;100066.25;5023857;27;98287;-73
2021/10/03 01:53:37;;;;;;;1999.90;999.90;;;;;;;12.52;46.68;100068.94;5021039;28;96787;-74
2021/10/03 01:56:08;;;;;;;1999.90;999.90;;;;;;;12.52;46.77;100063.59;5003638;28;96953;-74
2021/10/03 01:58:38;;;;;;;1999.90;999.90;;;;;;;12.53;46.76;100068.06;5023178;27;97585;-73
2021/10/03 02:01:09;;;;;;;1999.90;999.90;;;;;;;12.53;46.76;100062.72;5016820;27;97539;-73
2021/10/03 02:03:37;;;;;;;1999.90;999.90;;;;;;;12.54;46.60;100070.72;5020304;28;96771;-73
2021/10/03 02:06:06;;;;;;;1999.90;999.90;;;;;;;12.56;46.46;100073.41;5022026;28;97602;-74
2021/10/03 02:08:35;;;;;;;1999.90;999.90;;;;;;;12.56;46.59;100070.72;5003555;28;99246;-73
2021/10/03 02:11:29;;;;;;;1999.90;999.90;;;;;;;12.53;46.71;100070.72;5018921;28;100609;-73
2021/10/03 02:13:57;;;;;;;1999.90;999.90;;;;;;;12.53;46.63;100071.59;5020789;28;96616;-74
2021/10/03 02:16:24;;;;;;;1999.90;999.90;;;;;;;12.54;46.69;100075.16;5020826;27;97359;-73
2021/10/03 02:18:54;;;;;;;1999.90;999.90;;;;;;;12.53;46.53;100084.94;5020231;27;97529;-73
2021/10/03 02:21:22;;;;;;;1999.90;999.90;;;;;;;12.54;46.34;100073.41;5002493;28;99984;-74
2021/10/03 02:23:51;;;;;;;1999.90;999.90;;;;;;;12.57;46.38;100077.81;5022149;28;98745;-74
2021/10/03 02:26:19;;;;;;;1999.90;999.90;;;;;;;12.57;46.47;100065.38;5021948;27;99441;-74
2021/10/03 02:28:46;;;;;;;1999.90;999.90;;;;;;;12.57;46.35;100065.38;5019872;27;97389;-74
2021/10/03 02:31:15;;;;;;;1999.90;999.90;;;;;;;12.58;46.39;100063.63;5019516;27;97876;-73
2021/10/03 02:33:45;;;;;;;1999.90;999.90;;;;;;;12.56;46.46;100055.63;5023346;27;97333;-73
2021/10/03 02:36:15;;;;;;;1999.90;999.90;;;;;;;12.58;46.28;100055.59;5021727;28;97100;-73
2021/10/03 02:38:43;;;;;;;1999.90;999.90;;;;;;;12.57;46.32;100054.72;5018805;28;99470;-73
2021/10/03 02:41:13;;;;;;;1999.90;999.90;;;;;;;12.56;46.43;100057.38;5021078;27;97894;-74
2021/10/03 02:43:44;;;;;;;1999.90;999.90;;;;;;;12.56;46.45;100057.38;5021111;28;97364;-73
2021/10/03 02:46:12;;;;;;;1999.90;999.90;;;;;;;12.56;46.51;100044.03;5019859;27;96993;-73
2021/10/03 02:48:41;;;;;;;1999.90;999.90;;;;;;;12.57;46.42;100051.13;5024485;27;99286;-73
2021/10/03 02:51:08;;;;;;;1999.90;999.90;;;;;;;12.58;46.39;100039.59;5035493;27;99846;-73
2021/10/03 02:53:36;;;;;;;1999.90;999.90;;;;;;;12.58;46.40;100039.59;5024371;27;97017;-73
2021/10/03 02:56:04;;;;;;;1999.90;999.90;;;;;;;12.57;46.35;100033.34;5024790;27;97784;-74
2021/10/03 02:58:35;;;;;;;1999.90;999.90;;;;;;;12.59;46.27;100030.69;5025427;27;97374;-74
2021/10/03 03:01:03;;;;;;;1999.90;999.90;;;;;;;12.62;46.29;100034.25;5026025;27;99017;-74
2021/10/03 03:03:33;;;;;;;1999.90;999.90;;;;;;;12.63;46.18;100024.47;5021306;27;97431;-73
2021/10/03 03:06:01;;;;;;;1999.90;999.90;;;;;;;12.64;46.14;100026.22;5026035;27;96856;-74
2021/10/03 03:08:28;;;;;;;1999.90;999.90;;;;;;;12.66;46.17;100021.78;5024107;28;100394;-73
2021/10/03 03:10:56;;;;;;;1999.90;999.90;;;;;;;12.67;46.07;100015.56;5022894;28;99151;-74
2021/10/03 03:13:24;;;;;;;1999.90;999.90;;;;;;;12.67;46.14;100019.16;5026547;27;98347;-74
2021/10/03 03:15:53;;;;;;;1999.90;999.90;;;;;;;12.67;45.89;100021.81;5024894;27;97891;-74
2021/10/03 03:18:21;;;;;;;1999.90;999.90;;;;;;;12.70;46.01;100018.25;5025049;27;101133;-74
2021/10/03 03:20:49;;;;;;;1999.90;999.90;;;;;;;12.70;46.00;100013.78;5020755;27;97940;-74
2021/10/03 03:23:17;;;;;;;1999.90;999.90;;;;;;;12.70;45.81;100007.56;5024489;28;97842;-74
2021/10/03 03:25:45;;;;;;;1999.90;999.90;;;;;;;12.71;45.95;100010.22;5025275;27;97804;-73
2021/10/03 03:28:12;;;;;;;1999.90;999.90;;;;;;;12.73;45.95;100011.13;5022192;27;98971;-74
2021/10/03 03:30:40;;;;;;;1999.90;999.90;;;;;;;12.74;45.85;100009.34;5026495;28;97823;-73
2021/10/03 03:33:09;;;;;;;1999.90;999.90;;;;;;;12.77;45.70;100006.66;5025150;27;97267;-73
2021/10/03 03:35:37;;;;;;;1999.90;999.90;;;;;;;12.75;45.74;100017.34;5022878;27;97459;-74
2021/10/03 03:38:05;;;;;;;1999.90;999.90;;;;;;;12.75;45.80;100016.44;5024080;27;97365;-73
2021/10/03 03:40:33;;;;;;;1999.90;999.90;;;;;;;12.76;45.92;100007.56;5022095;27;98192;-73
2021/10/03 03:43:00;;;;;;;1999.90;999.90;;;;;;;12.76;45.71;100012.91;5002300;27;97207;-73
2021/10/03 03:45:28;;;;;;;1999.90;999.90;;;;;;;12.75;45.79;100006.66;5021658;27;97590;-74
2021/10/03 03:47:58;;;;;;;1999.90;999.90;;;;;;;12.74;45.86;100009.34;5022978;27;99232;-74
2021/10/03 03:50:28;;;;;;;1999.90;999.90;;;;;;;12.74;45.77;100012.00;5023646;27;100541;-73
2021/10/03 03:52:56;;;;;;;1999.90;999.90;;;;;;;12.77;45.71;100009.34;5025056;27;96832;-74
2021/10/03 03:55:23;;;;;;;1999.90;999.90;;;;;;;12.78;45.60;100011.13;5023359;27;97326;-72
2021/10/03 03:57:52;;;;;;;1999.90;999.90;;;;;;;12.78;45.62;100008.47;5023887;27;99315;-74
2021/10/03 04:00:20;;;;;;;1999.90;999.90;;;;;;;12.78;45.65;99993.31;5018750;27;97886;-72
2021/10/03 04:02:48;;;;;;;1999.90;999.90;;;;;;;12.78;45.65;100004.00;5010415;28;96945;-73
2021/10/03 04:05:16;;;;;;;1999.90;999.90;;;;;;;12.77;45.50;100010.22;5018571;27;97004;-74
2021/10/03 04:07:45;;;;;;;1999.90;999.90;;;;;;;12.78;45.62;100004.00;5019878;27;99392;-74
2021/10/03 04:10:13;;;;;;;1999.90;999.90;;;;;;;12.79;45.45;100007.56;5022295;28;97949;-74
2021/10/03 04:12:41;;;;;;;1999.90;999.90;;;;;;;12.79;45.44;100004.88;5023741;27;98477;-74
2021/10/03 04:15:10;;;;;;;1999.90;999.90;;;;;;;12.80;45.33;100014.69;5022211;27;98099;-74
2021/10/03 04:17:38;;;;;;;1999.90;999.90;;;;;;;12.79;45.49;100013.78;5021960;27;101027;-74
2021/10/03 04:20:07;;;;;;;1999.90;999.90;;;;;;;12.79;45.48;100013.78;5025952;27;96740;-73
2021/10/03 04:22:35;;;;;;;1999.90;999.90;;;;;;;12.79;45.31;100013.78;5024073;28;97359;-74
2021/10/03 04:25:05;;;;;;;1999.90;999.90;;;;;;;12.80;45.40;100004.00;5022331;27;97274;-73
2021/10/03 04:27:32;;;;;;;1999.90;999.90;;;;;;;12.78;45.43;100013.81;5022147;27;97797;-73
2021/10/03 04:30:00;;;;;;;1999.90;999.90;;;;;;;12.67;45.60;100012.91;5024520;27;97460;-75
2021/10/03 04:32:28;;;;;;;1999.90;999.90;;;;;;;12.66;45.56;100012.00;5021405;27;97151;-73
2021/10/03 04:34:56;;;;;;;1999.90;999.90;;;;;;;12.65;45.64;100017.34;5019505;27;97359;-73
2021/10/03 04:37:24;;;;;;;1999.90;999.90;;;;;;;12.64;45.54;100019.13;5022361;27;99423;-74
2021/10/03 04:39:51;;;;;;;1999.90;999.90;;;;;;;12.63;45.72;100017.34;5004312;28;99633;-74
2021/10/03 04:42:21;;;;;;;1999.90;999.90;;;;;;;12.63;45.77;100019.13;5021987;28;96872;-73
2021/10/03 04:44:48;;;;;;;1999.90;999.90;;;;;;;12.62;45.82;100028.03;5019926;27;97836;-73
2021/10/03 04:47:16;;;;;;;1999.90;999.90;;;;;;;12.61;45.67;100019.13;5022653;27;99597;-73
2021/10/03 04:49:44;;;;;;;1999.90;999.90;;;;;;;12.63;45.71;100020.03;5004485;28;100255;-73
2021/10/03 04:52:11;;;;;;;1999.90;999.90;;;;;;;12.64;45.83;100028.91;5021690;27;97247;-73
2021/10/03 04:54:39;;;;;;;1999.90;999.90;;;;;;;12.65;45.65;100017.34;5022925;28;97739;-73
2021/10/03 04:57:07;;;;;;;1999.90;999.90;;;;;;;12.65;45.68;100020.03;5021824;27;100645;-73
2021/10/03 04:59:36;;;;;;;1999.90;999.90;;;;;;;12.63;45.65;100033.38;5021389;28;100523;-73
2021/10/03 05:02:04;;;;;;;1999.90;999.90;;;;;;;12.64;45.63;100020.91;5021057;27;97102;-72
2021/10/03 05:04:32;;;;;;;1999.90;999.90;;;;;;;12.64;45.80;100012.88;5024133;27;97936;-73
2021/10/03 05:07:00;;;;;;;1999.90;999.90;;;;;;;12.65;45.71;100012.00;5021753;27;98625;-73
2021/10/03 05:09:27;;;;;;;1999.90;999.90;;;;;;;12.63;45.79;100009.34;5020680;27;100531;-73
2021/10/03 05:11:55;;;;;;;1999.90;999.90;;;;;;;12.68;45.59;100020.00;5004211;28;97765;-74
2021/10/03 05:14:23;;;;;;;1999.90;999.90;;;;;;;12.67;45.63;100015.56;5020774;27;97837;-73
2021/10/03 05:16:52;;;;;;;1999.90;999.90;;;;;;;12.70;45.51;100007.56;5019072;27;97249;-74
2021/10/03 05:19:20;;;;;;;1999.90;999.90;;;;;;;12.71;45.56;100009.34;5021981;27;98066;-73
2021/10/03 05:21:48;;;;;;;1999.90;999.90;;;;;;;12.73;45.58;100004.91;5020752;27;96729;-74
2021/10/03 05:24:15;;;;;;;1999.90;999.90;;;;;;;12.71;45.49;100006.69;5022060;28;96988;-74
2021/10/03 05:26:43;;;;;;;1999.90;999.90;;;;;;;12.70;45.52;100008.47;5022638;27;98270;-72
2021/10/03 05:29:11;;;;;;;1999.90;999.90;;;;;;;12.71;45.50;100009.34;5022335;28;97903;-72
2021/10/03 05:31:38;;;;;;;1999.90;999.90;;;;;;;12.68;45.63;100001.31;5020998;27;96783;-73
2021/10/03 05:34:08;;;;;;;1999.90;999.90;;;;;;;12.65;45.63;99996.91;5023759;27;97351;-73
2021/10/03 05:36:36;;;;;;;1999.90;999.90;;;;;;;12.65;45.65;99993.34;5020947;27;99857;-72
2021/10/03 05:39:03;;;;;;;1999.90;999.90;;;;;;;12.65;45.68;99998.66;5023409;27;98888;-74
2021/10/03 05:41:31;;;;;;;1999.90;999.90;;;;;;;12.64;45.75;99991.53;5003422;28;97213;-74
2021/10/03 05:43:59;;;;;;;1999.90;999.90;;;;;;;12.63;45.60;99984.44;5022587;27;96886;-73
2021/10/03 05:46:27;;;;;;;1999.90;999.90;;;;;;;12.59;45.83;99991.56;5021071;27;97751;-73
2021/10/03 05:48:55;;;;;;;1999.90;999.90;;;;;;;12.60;45.76;99995.13;5022842;27;98812;-74
2021/10/03 05:51:24;;;;;;;1999.90;999.90;;;;;;;12.62;45.71;99998.69;5024280;27;97685;-74
2021/10/03 05:53:51;;;;;;;1999.90;999.90;;;;;;;12.59;45.83;99988.88;5021599;28;97382;-73
2021/10/03 05:56:19;;;;;;;1999.90;999.90;;;;;;;12.57;45.83;99998.66;5004299;27;100401;-74
2021/10/03 05:58:47;;;;;;;1999.90;999.90;;;;;;;12.58;45.80;100003.13;5031102;27;99584;-74
2021/10/03 06:01:14;;;;;;;1999.90;999.90;;;;;;;12.58;45.80;99991.56;5021981;27;97766;-73
2021/10/03 06:03:42;;;;;;;1999.90;999.90;;;;;;;12.60;45.74;99987.13;5021460;27;97043;-74
2021/10/03 06:06:11;;;;;;;1999.90;999.90;;;;;;;12.60;45.88;99987.97;5022607;27;97629;-74
2021/10/03 06:08:40;;;;;;;1999.90;999.90;;;;;;;12.60;45.74;100000.47;5004835;28;99346;-74
2021/10/03 06:11:08;;;;;;;1999.90;999.90;;;;;;;12.62;45.73;99996.88;5023849;27;97344;-74
2021/10/03 06:13:36;;;;;;;1999.90;999.90;;;;;;;12.61;45.66;100002.22;5022524;27;96969;-74
2021/10/03 06:16:04;;;;;;;1999.90;999.90;;;;;;;12.61;45.69;100004.88;5003298;28;99434;-74
2021/10/03 06:18:32;;;;;;;1999.90;999.90;;;;;;;12.59;45.72;100002.22;5002285;27;99326;-73
2021/10/03 06:21:00;;;;;;;1999.90;999.90;;;;;;;12.57;45.85;100000.44;5015321;27;96872;-73
2021/10/03 06:23:28;;;;;;;1999.90;999.90;;;;;;;12.58;45.89;100012.91;5014940;27;98175;-73
2021/10/03 06:25:57;;;;;;;1999.90;999.90;;;;;;;12.58;45.79;100012.91;4996913;28;97635;-73
2021/10/03 06:28:24;;;;;;;1999.90;999.90;;;;;;;12.60;45.76;100011.13;5001183;28;97637;-73
2021/10/03 06:30:52;;;;;;;1999.90;999.90;;;;;;;12.61;45.81;100018.22;4979543;28;97055;-74
2021/10/03 06:33:20;;;;;;;1999.90;999.90;;;;;;;12.64;45.63;100018.22;4998646;28;97485;-72
2021/10/03 06:35:48;;;;;;;1999.90;999.90;;;;;;;12.63;45.69;100016.47;5000693;28;97581;-72
2021/10/03 06:38:15;;;;;;;1999.90;999.90;;;;;;;12.64;45.72;100020.91;4981870;28;99341;-73
2021/10/03 06:40:43;;;;;;;1999.90;999.90;;;;;;;12.63;45.66;100012.03;4999585;28;97807;-73
2021/10/03 06:43:12;;;;;;;1999.90;999.90;;;;;;;12.63;45.75;100011.13;5000067;28;97373;-73
2021/10/03 06:45:40;;;;;;;1999.90;999.90;;;;;;;12.60;45.71;100012.00;5000519;28;98679;-73
2021/10/03 06:48:09;;;;;;;1999.90;999.90;;;;;;;12.63;45.86;100011.13;4997935;28;100633;-72
2021/10/03 06:50:38;;;;;;;1999.90;999.90;;;;;;;12.64;45.73;100013.78;5015801;27;96984;-71
2021/10/03 06:53:06;;;;;;;1999.90;999.90;;;;;;;12.67;45.74;100011.13;5019074;27;97494;-72
2021/10/03 06:55:33;;;;;;;1999.90;999.90;;;;;;;12.67;45.83;100004.91;5018963;28;97830;-73
2021/10/03 06:58:01;;;;;;;1999.90;999.90;;;;;;;12.70;45.78;100007.56;5019513;27;98622;-72
2021/10/03 07:00:31;;;;;;;1999.90;999.90;;;;;;;12.73;45.62;100013.78;5001784;28;97290;-72
2021/10/03 07:02:59;;;;;;;1999.90;999.90;;;;;;;12.72;45.62;100005.78;5017134;27;97932;-74
2021/10/03 07:05:27;;;;;;;1999.90;999.90;;;;;;;12.69;45.72;100017.34;5015344;28;99276;-73
2021/10/03 07:07:54;;;;;;;1999.90;999.90;;;;;;;12.71;45.72;100009.34;5014162;27;97891;-73
2021/10/03 07:10:22;;;;;;;1999.90;999.90;;;;;;;12.71;45.58;100012.91;5016578;27;97170;-73
2021/10/03 07:12:50;;;;;;;1999.90;999.90;;;;;;;12.73;45.59;100019.13;5019990;27;98178;-73
2021/10/03 07:15:18;;;;;;;1999.90;999.90;;;;;;;12.72;45.60;100014.69;5019346;28;98859;-73
2021/10/03 07:17:47;;;;;;;1999.90;999.90;;;;;;;12.75;45.65;100013.78;5017076;28;100287;-72
2021/10/03 07:20:15;;;;;;;1999.90;999.90;;;;;;;12.80;45.47;100017.38;5019425;28;96929;-72
2021/10/03 07:22:43;;;;;;;1999.90;999.90;;;;;;;12.83;45.54;100015.59;5020793;27;98250;-73
2021/10/03 07:25:11;;;;;;;1999.90;999.90;;;;;;;12.90;45.37;100028.03;5000798;28;99541;-73
2021/10/03 07:27:39;;;;;;;1999.90;999.90;;;;;;;12.90;45.20;100027.13;5018382;28;98125;-72
2021/10/03 07:30:07;;;;;;;1999.90;999.90;;;;;;;12.84;45.41;100017.34;5020112;28;97472;-71
2021/10/03 07:32:35;;;;;;;1999.90;999.90;;;;;;;12.86;45.35;100017.34;5023731;27;99194;-73
2021/10/03 07:35:05;;;;;;;1999.90;999.90;;;;;;;12.88;45.45;100019.13;5015044;27;98066;-72
2021/10/03 07:37:33;;;;;;;1999.90;999.90;;;;;;;12.90;45.28;100017.34;5021893;27;99952;-70
2021/10/03 07:40:02;;;;;;;1999.90;999.90;;;;;;;12.92;45.29;100015.56;5024448;27;97230;-73
2021/10/03 07:42:30;;;;;;;1999.90;999.90;;;;;;;12.96;45.30;100027.16;5023648;27;98515;-73
2021/10/03 07:44:58;;;;;;;1999.90;999.90;;;;;;;12.96;45.31;100022.69;5012589;27;97235;-72
2021/10/03 07:47:26;;;;;;;1999.90;999.90;;;;;;;13.00;45.24;100027.16;5013566;27;98957;-72
2021/10/03 07:49:53;;;;;;;1999.90;999.90;;;;;;;13.02;45.29;100027.19;5002978;28;97012;-72
2021/10/03 07:52:22;;;;;;;1999.90;999.90;;;;;;;13.05;45.13;100027.16;5030127;27;97975;-72
2021/10/03 07:54:50;;;;;;;1999.90;999.90;;;;;;;13.05;45.17;100017.38;5020463;27;99341;-73
2021/10/03 07:57:19;;;;;;;1999.90;999.90;;;;;;;13.08;45.03;100016.47;5027006;27;97631;-72
2021/10/03 07:59:47;;;;;;;1999.90;999.90;;;;;;;13.10;45.08;100033.38;5021193;27;97905;-73
2021/10/03 08:02:15;;;;;;;1999.90;999.90;;;;;;;13.09;45.03;100018.28;5024397;27;97261;-71
2021/10/03 08:04:43;;;;;;;1999.90;999.90;;;;;;;13.10;45.19;100036.97;5026276;27;97879;-73
2021/10/03 08:07:11;;;;;;;1999.90;999.90;;;;;;;13.10;45.15;100041.41;5022041;27;97641;-74
2021/10/03 08:09:40;;;;;;;1999.90;999.90;;;;;;;13.12;45.17;100036.94;5015258;27;97454;-75
2021/10/03 08:12:08;;;;;;;1999.90;999.90;;;;;;;13.14;45.11;100035.16;5021672;27;97833;-74
2021/10/03 08:14:35;;;;;;;1999.90;999.90;;;;;;;13.17;45.01;100034.28;5020070;28;97826;-73
2021/10/03 08:17:04;;;;;;;1999.90;999.90;;;;;;;13.13;45.17;100030.69;5003102;27;99163;-74
2021/10/03 08:19:32;;;;;;;1999.90;999.90;;;;;;;13.13;45.13;100041.38;5020838;27;97692;-75
2021/10/03 08:22:00;;;;;;;1999.90;999.90;;;;;;;13.12;45.14;100039.63;5018909;27;96905;-74
2021/10/03 08:24:28;;;;;;;1999.90;999.90;;;;;;;13.13;45.13;100031.59;5017624;27;100621;-73
2021/10/03 08:27:01;;;;;;;1999.90;999.90;;;;;;;13.14;45.10;100045.84;5021660;27;96952;-74
2021/10/03 08:29:29;;;;;;;1999.90;999.90;;;;;;;13.16;45.00;100033.41;5022514;27;97006;-74
2021/10/03 08:31:56;;;;;;;1999.90;999.90;;;;;;;13.17;45.05;100036.97;5019830;27;97983;-73
2021/10/03 08:34:24;;;;;;;1999.90;999.90;;;;;;;13.18;45.11;100034.28;5020065;27;99623;-73
2021/10/03 08:36:52;;;;;;;1999.90;999.90;;;;;;;13.20;44.97;100040.53;5020580;27;97007;-73
2021/10/03 08:39:20;;;;;;;1999.90;999.90;;;;;;;13.20;44.95;100037.84;5019554;28;96893;-70
2021/10/03 08:41:48;;;;;;;1999.90;999.90;;;;;;;13.20;45.00;100032.50;5020081;27;97398;-74
2021/10/03 08:44:18;;;;;;;1999.90;999.90;;;;;;;13.19;45.08;100036.03;5017020;27;99295;-72
2021/10/03 08:46:47;;;;;;;1999.90;999.90;;;;;;;13.20;45.09;100043.19;5004093;28;101904;-74
2021/10/03 08:49:17;;;;;;;1999.90;999.90;;;;;;;13.21;45.19;100052.97;5018589;27;96939;-73
2021/10/03 08:51:47;;;;;;;1999.90;999.90;;;;;;;13.24;45.17;100052.09;5020275;27;97228;-74
2021/10/03 08:54:16;;;;;;;1999.90;999.90;;;;;;;13.26;45.08;100042.28;5019607;27;99071;-73
2021/10/03 08:56:44;;;;;;;1999.90;999.90;;;;;;;13.28;45.10;100040.47;5014557;27;99000;-73
2021/10/03 08:59:12;;;;;;;1999.90;999.90;;;;;;;13.29;45.05;100029.81;5020653;27;97318;-74
2021/10/03 09:01:49;;;;;;;1999.90;999.90;;;;;;;13.32;45.00;100036.91;5019752;27;97465;-73
2021/10/03 09:04:25;;;;;;;1999.90;999.90;;;;;;;13.36;44.78;100038.69;5018729;27;99261;-73
2021/10/03 09:07:07;;;;;;;1999.90;999.90;;;;;;;13.36;44.84;100047.59;5018743;28;100844;-73
2021/10/03 09:09:49;;;;;;;1999.90;999.90;;;;;;;13.37;44.85;100029.81;5018489;27;97202;-70
2021/10/03 09:12:25;;;;;;;1999.90;999.90;;;;;;;13.40;44.83;100030.69;5019075;28;97332;-73
2021/10/03 09:14:53;;;;;;;1999.90;999.90;;;;;;;13.41;44.66;100028.88;5018005;27;96912;-74
2021/10/03 09:17:23;;;;;;;1999.90;999.90;;;;;;;13.40;44.80;100041.38;5016889;27;99524;-73
2021/10/03 09:20:07;;;;;;;1999.90;999.90;;;;;;;13.41;44.72;100036.91;5019793;28;97437;-74
2021/10/03 09:22:53;;;;;;;1999.90;999.90;;;;;;;13.45;44.61;100044.91;5019671;27;96883;-74
2021/10/03 09:25:39;;;;;;;1999.90;999.90;;;;;;;13.47;44.64;100039.56;5021587;27;96905;-74
2021/10/03 09:28:09;;;;;;;1999.90;999.90;;;;;;;13.50;44.58;100037.78;5023697;27;99294;-71
2021/10/03 09:30:53;;;;;;;1999.90;999.90;;;;;;;13.51;44.63;100044.91;5017714;27;99494;-75
2021/10/03 09:33:22;;;;;;;1999.90;999.90;;;;;;;13.54;44.54;100050.25;5021758;27;97329;-73
2021/10/03 09:35:57;;;;;;;1999.90;999.90;;;;;;;13.59;44.39;100055.56;5022432;27;99283;-72
2021/10/03 09:38:26;;;;;;;1999.90;999.90;;;;;;;13.61;44.22;100057.34;5019768;27;97580;-72
2021/10/03 09:41:04;;;;;;;1999.90;999.90;;;;;;;13.64;44.33;100051.13;5019998;27;96826;-74
2021/10/03 09:43:43;;;;;;;1999.90;999.90;;;;;;;13.62;44.32;100055.56;5019755;27;97215;-74
2021/10/03 09:46:32;;;;;;;1999.90;999.90;;;;;;;13.61;44.48;100057.34;5018925;27;97802;-72
2021/10/03 09:49:02;;;;;;;1999.90;999.90;;;;;;;13.64;44.25;100060.00;5019625;27;99206;-73
2021/10/03 09:51:30;;;;;;;1999.90;999.90;;;;;;;13.66;44.32;100058.22;5020914;27;97673;-73
2021/10/03 09:53:59;;;;;;;1999.90;999.90;;;;;;;13.67;44.39;100057.34;5023003;27;97434;-73
2021/10/03 09:56:27;;;;;;;1999.90;999.90;;;;;;;13.66;44.39;100055.53;5000812;28;99533;-72
2021/10/03 09:58:57;;;;;;;1999.90;999.90;;;;;;;13.69;44.35;100055.56;5019907;27;97713;-72
2021/10/03 10:01:25;;;;;;;1999.90;999.90;;;;;;;13.69;44.49;100055.56;5016724;28;97495;-74
2021/10/03 10:03:53;;;;;;;1999.90;999.90;;;;;;;13.71;44.46;100050.19;5018463;27;97271;-73
2021/10/03 10:06:23;;;;;;;1999.90;999.90;;;;;;;13.73;44.44;100053.75;5017055;27;99431;-73
2021/10/03 10:08:55;;;;;;;1999.90;999.90;;;;;;;13.74;44.00;100047.50;5019464;27;97735;-73
2021/10/03 10:11:35;;;;;;;1999.90;999.90;;;;;;;13.74;44.09;100051.06;5021742;27;97714;-71
2021/10/03 10:14:04;;;;;;;1999.90;999.90;;;;;;;13.78;44.01;100049.28;5023465;27;97815;-72
2021/10/03 10:16:41;;;;;;;1999.90;999.90;;;;;;;13.79;44.08;100057.31;5022005;27;98624;-72
2021/10/03 10:19:29;;;;;;;1999.90;999.90;;;;;;;13.80;44.14;100060.88;5001630;28;99129;-73
2021/10/03 10:22:42;;;;;;;1999.90;999.90;;;;;;;13.84;44.17;100065.34;5015531;27;97256;-73
2021/10/03 10:25:22;;;;;;;1999.90;999.90;;;;;;;13.89;44.15;100063.53;5001573;28;98078;-73
2021/10/03 10:27:59;;;;;;;1999.90;999.90;;;;;;;13.94;43.84;100062.63;5014281;27;97299;-71
2021/10/03 10:30:28;;;;;;;1999.90;999.90;;;;;;;13.99;44.04;100054.56;4997419;27;100861;-72
2021/10/03 10:33:17;;;;;;;1999.90;999.90;;;;;;;14.01;43.79;100053.66;5012101;27;97345;-73
2021/10/03 10:35:48;;;;;;;1999.90;999.90;;;;;;;14.05;43.99;100050.09;5008966;27;98216;-71
2021/10/03 10:38:19;;;;;;;1999.90;999.90;;;;;;;14.09;44.02;100053.63;5014909;27;100421;-72
2021/10/03 10:40:50;;;;;;;1999.90;999.90;;;;;;;14.09;44.06;100054.53;4996169;28;97917;-72
2021/10/03 10:43:46;;;;;;;1999.90;999.90;;;;;;;14.12;43.79;100051.84;5015551;27;97218;-73
2021/10/03 10:46:44;;;;;;;1999.90;999.90;;;;;;;14.17;43.54;100050.94;5009013;27;98478;-72
2021/10/03 10:49:47;;;;;;;1999.90;999.90;;;;;;;14.21;43.65;100048.22;5008979;28;99255;-73
2021/10/03 10:52:29;;;;;;;1999.90;999.90;;;;;;;14.26;43.69;100042.84;5011371;27;98860;-73
2021/10/03 10:55:26;;;;;;;1999.90;999.90;;;;;;;14.28;43.76;100038.38;4996353;28;96888;-73
2021/10/03 10:58:19;;;;;;;1999.90;999.90;;;;;;;14.32;43.84;100042.78;4998095;28;97291;-73
2021/10/03 11:01:01;;;;;;;1999.90;999.90;;;;;;;14.34;43.60;100033.88;4999049;27;97543;-72